sensor_id;sensor_type;location;lat;lon;timestamp;P1;durP1;ratioP1;P2;durP2;ratioP2
21270;SDS011;10795;50.796;3.860;2023-05-07T00:01:02;7.72;;;3.70;;
21270;SDS011;10795;50.796;3.860;2023-05-07T00:03:28;7.85;;;4.05;;
21270;SDS011;10795;50.796;3.860;2023-05-07T00:05:54;6.05;;;4.05;;
21270;SDS011;10795;50.796;3.860;2023-05-07T00:08:20;8.05;;;4.78;;
21270;SDS011;10795;50.796;3.860;2023-05-07T00:10:46;6.70;;;4.05;;
21270;SDS011;10795;50.796;3.860;2023-05-07T00:13:12;6.68;;;3.92;;
21270;SDS011;10795;50.796;3.860;2023-05-07T00:15:38;9.20;;;4.32;;
21270;SDS011;10795;50.796;3.860;2023-05-07T00:18:04;9.20;;;5.63;;
21270;SDS011;10795;50.796;3.860;2023-05-07T00:20:30;8.90;;;6.07;;
21270;SDS011;10795;50.796;3.860;2023-05-07T00:22:56;11.20;;;5.85;;
21270;SDS011;10795;50.796;3.860;2023-05-07T00:25:22;12.10;;;6.53;;
21270;SDS011;10795;50.796;3.860;2023-05-07T00:27:48;11.18;;;6.10;;
21270;SDS011;10795;50.796;3.860;2023-05-07T00:30:14;9.95;;;5.38;;
21270;SDS011;10795;50.796;3.860;2023-05-07T00:32:40;16.77;;;5.75;;
21270;SDS011;10795;50.796;3.860;2023-05-07T00:35:06;10.63;;;5.70;;
21270;SDS011;10795;50.796;3.860;2023-05-07T00:37:32;9.35;;;5.78;;
21270;SDS011;10795;50.796;3.860;2023-05-07T00:39:58;9.00;;;5.18;;
21270;SDS011;10795;50.796;3.860;2023-05-07T00:42:24;11.45;;;5.47;;
21270;SDS011;10795;50.796;3.860;2023-05-07T00:44:50;8.57;;;5.53;;
21270;SDS011;10795;50.796;3.860;2023-05-07T00:47:16;8.70;;;5.20;;
21270;SDS011;10795;50.796;3.860;2023-05-07T00:49:43;7.85;;;5.78;;
21270;SDS011;10795;50.796;3.860;2023-05-07T00:52:14;9.02;;;6.00;;
21270;SDS011;10795;50.796;3.860;2023-05-07T00:54:42;7.75;;;5.40;;
21270;SDS011;10795;50.796;3.860;2023-05-07T00:57:11;6.70;;;4.43;;
21270;SDS011;10795;50.796;3.860;2023-05-07T00:59:37;12.82;;;5.53;;
21270;SDS011;10795;50.796;3.860;2023-05-07T01:02:07;10.52;;;6.00;;
21270;SDS011;10795;50.796;3.860;2023-05-07T01:04:33;9.32;;;5.80;;
21270;SDS011;10795;50.796;3.860;2023-05-07T01:06:59;11.85;;;6.68;;
21270;SDS011;10795;50.796;3.860;2023-05-07T01:09:26;9.13;;;5.72;;
21270;SDS011;10795;50.796;3.860;2023-05-07T01:11:53;9.65;;;5.60;;
21270;SDS011;10795;50.796;3.860;2023-05-07T01:14:20;12.95;;;6.43;;
21270;SDS011;10795;50.796;3.860;2023-05-07T01:16:47;11.00;;;5.35;;
21270;SDS011;10795;50.796;3.860;2023-05-07T01:19:14;10.45;;;6.07;;
21270;SDS011;10795;50.796;3.860;2023-05-07T01:21:45;8.85;;;5.20;;
21270;SDS011;10795;50.796;3.860;2023-05-07T01:24:14;9.00;;;4.22;;
21270;SDS011;10795;50.796;3.860;2023-05-07T01:26:41;6.20;;;4.60;;
21270;SDS011;10795;50.796;3.860;2023-05-07T01:29:07;6.55;;;4.47;;
21270;SDS011;10795;50.796;3.860;2023-05-07T01:31:34;5.63;;;4.07;;
21270;SDS011;10795;50.796;3.860;2023-05-07T01:34:01;9.50;;;4.70;;
21270;SDS011;10795;50.796;3.860;2023-05-07T01:36:30;11.30;;;5.45;;
21270;SDS011;10795;50.796;3.860;2023-05-07T01:38:57;10.75;;;6.07;;
21270;SDS011;10795;50.796;3.860;2023-05-07T01:41:24;12.75;;;7.43;;
21270;SDS011;10795;50.796;3.860;2023-05-07T01:43:51;8.57;;;5.82;;
21270;SDS011;10795;50.796;3.860;2023-05-07T01:46:19;11.43;;;6.95;;
21270;SDS011;10795;50.796;3.860;2023-05-07T01:48:45;10.70;;;7.80;;
21270;SDS011;10795;50.796;3.860;2023-05-07T01:51:12;10.40;;;7.38;;
21270;SDS011;10795;50.796;3.860;2023-05-07T01:53:38;9.35;;;6.40;;
21270;SDS011;10795;50.796;3.860;2023-05-07T01:56:06;11.93;;;6.18;;
21270;SDS011;10795;50.796;3.860;2023-05-07T01:58:33;9.23;;;5.95;;
21270;SDS011;10795;50.796;3.860;2023-05-07T02:00:59;12.57;;;6.80;;
21270;SDS011;10795;50.796;3.860;2023-05-07T02:03:26;10.90;;;7.57;;
21270;SDS011;10795;50.796;3.860;2023-05-07T02:06:00;10.15;;;6.63;;
21270;SDS011;10795;50.796;3.860;2023-05-07T02:08:35;16.00;;;8.18;;
21270;SDS011;10795;50.796;3.860;2023-05-07T02:11:02;11.32;;;7.40;;
21270;SDS011;10795;50.796;3.860;2023-05-07T02:13:29;15.40;;;7.78;;
21270;SDS011;10795;50.796;3.860;2023-05-07T02:15:57;11.43;;;6.97;;
21270;SDS011;10795;50.796;3.860;2023-05-07T02:18:24;9.95;;;6.10;;
21270;SDS011;10795;50.796;3.860;2023-05-07T02:20:49;9.68;;;6.40;;
21270;SDS011;10795;50.796;3.860;2023-05-07T02:23:15;12.35;;;6.15;;
21270;SDS011;10795;50.796;3.860;2023-05-07T02:25:41;7.72;;;5.63;;
21270;SDS011;10795;50.796;3.860;2023-05-07T02:28:07;9.63;;;6.07;;
21270;SDS011;10795;50.796;3.860;2023-05-07T02:30:53;9.65;;;6.22;;
21270;SDS011;10795;50.796;3.860;2023-05-07T02:33:20;8.60;;;5.72;;
21270;SDS011;10795;50.796;3.860;2023-05-07T02:35:46;8.63;;;5.22;;
21270;SDS011;10795;50.796;3.860;2023-05-07T02:38:14;5.75;;;4.25;;
21270;SDS011;10795;50.796;3.860;2023-05-07T02:40:40;6.13;;;4.78;;
21270;SDS011;10795;50.796;3.860;2023-05-07T02:43:06;6.05;;;4.32;;
21270;SDS011;10795;50.796;3.860;2023-05-07T02:45:32;7.00;;;4.10;;
21270;SDS011;10795;50.796;3.860;2023-05-07T02:48:00;8.48;;;4.28;;
21270;SDS011;10795;50.796;3.860;2023-05-07T02:50:26;7.65;;;4.20;;
21270;SDS011;10795;50.796;3.860;2023-05-07T02:52:53;6.15;;;4.20;;
21270;SDS011;10795;50.796;3.860;2023-05-07T02:55:21;5.35;;;4.10;;
21270;SDS011;10795;50.796;3.860;2023-05-07T02:57:47;7.50;;;4.30;;
21270;SDS011;10795;50.796;3.860;2023-05-07T03:00:18;6.55;;;4.22;;
21270;SDS011;10795;50.796;3.860;2023-05-07T03:02:56;7.80;;;5.25;;
21270;SDS011;10795;50.796;3.860;2023-05-07T03:05:22;11.80;;;5.93;;
21270;SDS011;10795;50.796;3.860;2023-05-07T03:07:48;8.40;;;5.68;;
21270;SDS011;10795;50.796;3.860;2023-05-07T03:10:14;10.45;;;5.72;;
21270;SDS011;10795;50.796;3.860;2023-05-07T03:12:40;8.02;;;5.05;;
21270;SDS011;10795;50.796;3.860;2023-05-07T03:15:08;6.22;;;3.80;;
21270;SDS011;10795;50.796;3.860;2023-05-07T03:17:35;6.88;;;4.57;;
21270;SDS011;10795;50.796;3.860;2023-05-07T03:20:01;13.05;;;6.10;;
21270;SDS011;10795;50.796;3.860;2023-05-07T03:22:28;12.10;;;5.90;;
21270;SDS011;10795;50.796;3.860;2023-05-07T03:24:54;7.97;;;5.55;;
21270;SDS011;10795;50.796;3.860;2023-05-07T03:27:20;10.18;;;6.22;;
21270;SDS011;10795;50.796;3.860;2023-05-07T03:29:46;8.30;;;6.68;;
21270;SDS011;10795;50.796;3.860;2023-05-07T03:32:12;8.82;;;6.22;;
21270;SDS011;10795;50.796;3.860;2023-05-07T03:34:39;11.43;;;6.00;;
21270;SDS011;10795;50.796;3.860;2023-05-07T03:37:06;10.80;;;6.35;;
21270;SDS011;10795;50.796;3.860;2023-05-07T03:39:31;7.95;;;5.60;;
21270;SDS011;10795;50.796;3.860;2023-05-07T03:41:57;7.10;;;6.03;;
21270;SDS011;10795;50.796;3.860;2023-05-07T03:44:23;9.63;;;6.00;;
21270;SDS011;10795;50.796;3.860;2023-05-07T03:46:50;8.20;;;5.60;;
21270;SDS011;10795;50.796;3.860;2023-05-07T03:49:16;7.55;;;6.03;;
21270;SDS011;10795;50.796;3.860;2023-05-07T03:51:42;11.43;;;6.20;;
21270;SDS011;10795;50.796;3.860;2023-05-07T03:54:08;8.05;;;5.63;;
21270;SDS011;10795;50.796;3.860;2023-05-07T03:56:36;7.43;;;5.15;;
21270;SDS011;10795;50.796;3.860;2023-05-07T03:59:01;6.10;;;3.90;;
21270;SDS011;10795;50.796;3.860;2023-05-07T04:01:27;4.95;;;4.05;;
21270;SDS011;10795;50.796;3.860;2023-05-07T04:03:55;6.25;;;4.30;;
21270;SDS011;10795;50.796;3.860;2023-05-07T04:06:23;5.15;;;4.32;;
21270;SDS011;10795;50.796;3.860;2023-05-07T04:08:50;5.97;;;4.45;;
21270;SDS011;10795;50.796;3.860;2023-05-07T04:11:15;6.10;;;4.35;;
21270;SDS011;10795;50.796;3.860;2023-05-07T04:13:42;5.80;;;3.92;;
21270;SDS011;10795;50.796;3.860;2023-05-07T04:16:08;4.95;;;4.43;;
21270;SDS011;10795;50.796;3.860;2023-05-07T04:18:36;8.73;;;4.38;;
21270;SDS011;10795;50.796;3.860;2023-05-07T04:21:03;7.13;;;5.18;;
21270;SDS011;10795;50.796;3.860;2023-05-07T04:23:30;6.05;;;5.32;;
21270;SDS011;10795;50.796;3.860;2023-05-07T04:25:58;9.63;;;5.93;;
21270;SDS011;10795;50.796;3.860;2023-05-07T04:28:32;10.32;;;6.70;;
21270;SDS011;10795;50.796;3.860;2023-05-07T04:30:59;13.27;;;7.10;;
21270;SDS011;10795;50.796;3.860;2023-05-07T04:33:26;11.88;;;7.78;;
21270;SDS011;10795;50.796;3.860;2023-05-07T04:38:21;11.18;;;7.65;;
21270;SDS011;10795;50.796;3.860;2023-05-07T04:40:51;11.95;;;8.30;;
21270;SDS011;10795;50.796;3.860;2023-05-07T04:43:21;12.90;;;9.35;;
21270;SDS011;10795;50.796;3.860;2023-05-07T04:45:50;13.20;;;8.95;;
21270;SDS011;10795;50.796;3.860;2023-05-07T04:48:17;15.07;;;9.60;;
21270;SDS011;10795;50.796;3.860;2023-05-07T04:50:48;16.98;;;9.80;;
21270;SDS011;10795;50.796;3.860;2023-05-07T04:53:16;15.25;;;9.38;;
21270;SDS011;10795;50.796;3.860;2023-05-07T04:55:43;11.70;;;8.90;;
21270;SDS011;10795;50.796;3.860;2023-05-07T04:58:10;14.25;;;10.27;;
21270;SDS011;10795;50.796;3.860;2023-05-07T05:00:38;11.43;;;8.93;;
21270;SDS011;10795;50.796;3.860;2023-05-07T05:03:06;9.48;;;8.30;;
21270;SDS011;10795;50.796;3.860;2023-05-07T05:05:32;17.52;;;10.05;;
21270;SDS011;10795;50.796;3.860;2023-05-07T05:07:59;14.77;;;9.73;;
21270;SDS011;10795;50.796;3.860;2023-05-07T05:10:25;19.23;;;10.65;;
21270;SDS011;10795;50.796;3.860;2023-05-07T05:12:51;20.42;;;11.13;;
21270;SDS011;10795;50.796;3.860;2023-05-07T05:15:17;19.25;;;10.45;;
21270;SDS011;10795;50.796;3.860;2023-05-07T05:17:43;14.70;;;10.50;;
21270;SDS011;10795;50.796;3.860;2023-05-07T05:20:10;16.73;;;10.70;;
21270;SDS011;10795;50.796;3.860;2023-05-07T05:22:37;15.00;;;10.20;;
21270;SDS011;10795;50.796;3.860;2023-05-07T05:25:04;17.02;;;10.43;;
21270;SDS011;10795;50.796;3.860;2023-05-07T05:27:31;17.42;;;9.52;;
21270;SDS011;10795;50.796;3.860;2023-05-07T05:29:57;15.23;;;9.88;;
21270;SDS011;10795;50.796;3.860;2023-05-07T05:32:23;13.85;;;9.68;;
21270;SDS011;10795;50.796;3.860;2023-05-07T05:34:50;18.30;;;9.98;;
21270;SDS011;10795;50.796;3.860;2023-05-07T05:37:16;12.48;;;9.57;;
21270;SDS011;10795;50.796;3.860;2023-05-07T05:39:43;15.57;;;9.10;;
21270;SDS011;10795;50.796;3.860;2023-05-07T05:42:09;11.57;;;8.75;;
21270;SDS011;10795;50.796;3.860;2023-05-07T05:44:35;11.57;;;8.43;;
21270;SDS011;10795;50.796;3.860;2023-05-07T05:47:01;12.57;;;8.32;;
21270;SDS011;10795;50.796;3.860;2023-05-07T05:49:28;12.25;;;8.27;;
21270;SDS011;10795;50.796;3.860;2023-05-07T05:51:54;12.32;;;8.05;;
21270;SDS011;10795;50.796;3.860;2023-05-07T05:54:23;11.45;;;8.32;;
21270;SDS011;10795;50.796;3.860;2023-05-07T05:56:49;10.40;;;7.53;;
21270;SDS011;10795;50.796;3.860;2023-05-07T05:59:15;13.18;;;7.93;;
21270;SDS011;10795;50.796;3.860;2023-05-07T06:01:41;10.85;;;6.82;;
21270;SDS011;10795;50.796;3.860;2023-05-07T06:04:07;11.10;;;6.82;;
21270;SDS011;10795;50.796;3.860;2023-05-07T06:06:33;13.60;;;7.10;;
21270;SDS011;10795;50.796;3.860;2023-05-07T06:09:01;10.63;;;6.93;;
21270;SDS011;10795;50.796;3.860;2023-05-07T06:11:34;11.25;;;7.10;;
21270;SDS011;10795;50.796;3.860;2023-05-07T06:14:00;13.00;;;7.13;;
21270;SDS011;10795;50.796;3.860;2023-05-07T06:16:27;12.13;;;7.07;;
21270;SDS011;10795;50.796;3.860;2023-05-07T06:18:53;11.82;;;6.75;;
21270;SDS011;10795;50.796;3.860;2023-05-07T06:21:19;14.13;;;7.55;;
21270;SDS011;10795;50.796;3.860;2023-05-07T06:23:44;10.20;;;6.93;;
21270;SDS011;10795;50.796;3.860;2023-05-07T06:26:10;11.57;;;7.07;;
21270;SDS011;10795;50.796;3.860;2023-05-07T06:28:40;15.38;;;7.30;;
21270;SDS011;10795;50.796;3.860;2023-05-07T06:31:19;9.13;;;6.45;;
21270;SDS011;10795;50.796;3.860;2023-05-07T06:33:55;9.05;;;6.07;;
21270;SDS011;10795;50.796;3.860;2023-05-07T06:36:25;7.20;;;5.47;;
21270;SDS011;10795;50.796;3.860;2023-05-07T06:38:54;8.52;;;5.82;;
21270;SDS011;10795;50.796;3.860;2023-05-07T06:41:20;13.32;;;6.53;;
21270;SDS011;10795;50.796;3.860;2023-05-07T06:43:46;8.40;;;5.93;;
21270;SDS011;10795;50.796;3.860;2023-05-07T06:46:45;8.23;;;5.63;;
21270;SDS011;10795;50.796;3.860;2023-05-07T06:49:12;7.75;;;6.07;;
21270;SDS011;10795;50.796;3.860;2023-05-07T06:51:39;9.77;;;6.47;;
21270;SDS011;10795;50.796;3.860;2023-05-07T06:54:05;10.55;;;6.70;;
21270;SDS011;10795;50.796;3.860;2023-05-07T06:56:34;6.70;;;5.82;;
21270;SDS011;10795;50.796;3.860;2023-05-07T06:59:02;11.20;;;6.50;;
21270;SDS011;10795;50.796;3.860;2023-05-07T07:01:32;8.52;;;5.68;;
21270;SDS011;10795;50.796;3.860;2023-05-07T07:04:00;6.68;;;5.20;;
21270;SDS011;10795;50.796;3.860;2023-05-07T07:06:28;7.40;;;5.10;;
21270;SDS011;10795;50.796;3.860;2023-05-07T07:08:55;7.45;;;5.07;;
21270;SDS011;10795;50.796;3.860;2023-05-07T07:11:20;6.18;;;5.18;;
21270;SDS011;10795;50.796;3.860;2023-05-07T07:13:46;8.73;;;5.45;;
21270;SDS011;10795;50.796;3.860;2023-05-07T07:16:12;9.40;;;5.65;;
21270;SDS011;10795;50.796;3.860;2023-05-07T07:18:38;8.05;;;5.70;;
21270;SDS011;10795;50.796;3.860;2023-05-07T07:21:04;8.25;;;5.10;;
21270;SDS011;10795;50.796;3.860;2023-05-07T07:23:30;8.05;;;5.10;;
21270;SDS011;10795;50.796;3.860;2023-05-07T07:25:56;6.95;;;4.82;;
21270;SDS011;10795;50.796;3.860;2023-05-07T07:28:22;12.50;;;5.75;;
21270;SDS011;10795;50.796;3.860;2023-05-07T07:30:48;7.57;;;5.20;;
21270;SDS011;10795;50.796;3.860;2023-05-07T07:33:15;9.52;;;5.45;;
21270;SDS011;10795;50.796;3.860;2023-05-07T07:35:42;10.55;;;5.85;;
21270;SDS011;10795;50.796;3.860;2023-05-07T07:38:09;10.27;;;5.80;;
21270;SDS011;10795;50.796;3.860;2023-05-07T07:40:35;6.55;;;5.22;;
21270;SDS011;10795;50.796;3.860;2023-05-07T07:43:02;9.38;;;4.90;;
21270;SDS011;10795;50.796;3.860;2023-05-07T07:45:28;7.22;;;4.63;;
21270;SDS011;10795;50.796;3.860;2023-05-07T07:47:54;6.78;;;5.07;;
21270;SDS011;10795;50.796;3.860;2023-05-07T07:50:21;7.38;;;5.40;;
21270;SDS011;10795;50.796;3.860;2023-05-07T07:52:47;10.02;;;6.40;;
21270;SDS011;10795;50.796;3.860;2023-05-07T07:55:15;11.13;;;7.32;;
21270;SDS011;10795;50.796;3.860;2023-05-07T07:57:46;9.45;;;7.32;;
21270;SDS011;10795;50.796;3.860;2023-05-07T08:00:12;9.15;;;7.47;;
21270;SDS011;10795;50.796;3.860;2023-05-07T08:02:50;9.25;;;7.88;;
21270;SDS011;10795;50.796;3.860;2023-05-07T08:05:23;9.93;;;7.45;;
21270;SDS011;10795;50.796;3.860;2023-05-07T08:07:50;5.82;;;3.55;;
21270;SDS011;10795;50.796;3.860;2023-05-07T08:10:21;8.63;;;6.20;;
21270;SDS011;10795;50.796;3.860;2023-05-07T08:12:50;9.73;;;6.18;;
21270;SDS011;10795;50.796;3.860;2023-05-07T08:15:16;7.18;;;6.00;;
21270;SDS011;10795;50.796;3.860;2023-05-07T08:17:43;8.40;;;5.95;;
21270;SDS011;10795;50.796;3.860;2023-05-07T08:20:09;9.02;;;5.90;;
21270;SDS011;10795;50.796;3.860;2023-05-07T08:22:36;11.63;;;5.90;;
21270;SDS011;10795;50.796;3.860;2023-05-07T08:25:02;9.45;;;5.50;;
21270;SDS011;10795;50.796;3.860;2023-05-07T08:27:29;7.80;;;4.90;;
21270;SDS011;10795;50.796;3.860;2023-05-07T08:29:55;9.27;;;5.30;;
21270;SDS011;10795;50.796;3.860;2023-05-07T08:32:21;7.43;;;4.30;;
21270;SDS011;10795;50.796;3.860;2023-05-07T08:34:47;5.32;;;4.60;;
21270;SDS011;10795;50.796;3.860;2023-05-07T08:37:13;7.05;;;4.30;;
21270;SDS011;10795;50.796;3.860;2023-05-07T08:39:39;4.07;;;2.40;;
21270;SDS011;10795;50.796;3.860;2023-05-07T08:42:12;5.40;;;3.85;;
21270;SDS011;10795;50.796;3.860;2023-05-07T08:44:42;7.32;;;4.35;;
21270;SDS011;10795;50.796;3.860;2023-05-07T08:47:15;5.03;;;4.43;;
21270;SDS011;10795;50.796;3.860;2023-05-07T08:49:44;8.18;;;4.70;;
21270;SDS011;10795;50.796;3.860;2023-05-07T08:52:11;6.22;;;4.65;;
21270;SDS011;10795;50.796;3.860;2023-05-07T08:54:38;3.72;;;3.33;;
21270;SDS011;10795;50.796;3.860;2023-05-07T08:57:06;5.10;;;3.08;;
21270;SDS011;10795;50.796;3.860;2023-05-07T08:59:34;3.95;;;2.80;;
21270;SDS011;10795;50.796;3.860;2023-05-07T09:02:00;5.03;;;4.03;;
21270;SDS011;10795;50.796;3.860;2023-05-07T09:04:26;8.65;;;4.20;;
21270;SDS011;10795;50.796;3.860;2023-05-07T09:06:53;5.63;;;4.32;;
21270;SDS011;10795;50.796;3.860;2023-05-07T09:09:21;8.48;;;4.88;;
21270;SDS011;10795;50.796;3.860;2023-05-07T09:11:55;6.47;;;4.40;;
21270;SDS011;10795;50.796;3.860;2023-05-07T09:14:24;7.63;;;4.57;;
21270;SDS011;10795;50.796;3.860;2023-05-07T09:16:52;6.90;;;5.35;;
21270;SDS011;10795;50.796;3.860;2023-05-07T09:19:25;9.30;;;6.00;;
21270;SDS011;10795;50.796;3.860;2023-05-07T09:22:03;8.57;;;5.57;;
21270;SDS011;10795;50.796;3.860;2023-05-07T09:24:49;7.47;;;5.32;;
21270;SDS011;10795;50.796;3.860;2023-05-07T09:27:17;11.50;;;6.47;;
21270;SDS011;10795;50.796;3.860;2023-05-07T09:29:44;12.18;;;7.30;;
21270;SDS011;10795;50.796;3.860;2023-05-07T09:32:12;9.95;;;7.70;;
21270;SDS011;10795;50.796;3.860;2023-05-07T09:34:38;12.23;;;7.95;;
21270;SDS011;10795;50.796;3.860;2023-05-07T09:37:06;14.13;;;8.20;;
21270;SDS011;10795;50.796;3.860;2023-05-07T09:39:44;10.65;;;7.57;;
21270;SDS011;10795;50.796;3.860;2023-05-07T09:42:13;10.80;;;8.57;;
21270;SDS011;10795;50.796;3.860;2023-05-07T09:44:43;16.52;;;9.00;;
21270;SDS011;10795;50.796;3.860;2023-05-07T09:47:16;11.45;;;7.72;;
21270;SDS011;10795;50.796;3.860;2023-05-07T09:49:47;10.02;;;7.18;;
21270;SDS011;10795;50.796;3.860;2023-05-07T09:52:16;7.32;;;6.45;;
21270;SDS011;10795;50.796;3.860;2023-05-07T09:54:47;7.70;;;6.90;;
21270;SDS011;10795;50.796;3.860;2023-05-07T09:59:47;7.32;;;4.95;;
21270;SDS011;10795;50.796;3.860;2023-05-07T10:02:18;10.45;;;8.30;;
21270;SDS011;10795;50.796;3.860;2023-05-07T10:04:49;9.32;;;7.60;;
21270;SDS011;10795;50.796;3.860;2023-05-07T10:07:20;9.10;;;8.20;;
21270;SDS011;10795;50.796;3.860;2023-05-07T10:09:50;10.15;;;7.68;;
21270;SDS011;10795;50.796;3.860;2023-05-07T10:12:24;7.88;;;7.07;;
21270;SDS011;10795;50.796;3.860;2023-05-07T10:14:51;8.80;;;6.50;;
21270;SDS011;10795;50.796;3.860;2023-05-07T10:17:20;7.03;;;5.90;;
21270;SDS011;10795;50.796;3.860;2023-05-07T10:19:48;6.78;;;6.10;;
21270;SDS011;10795;50.796;3.860;2023-05-07T10:22:18;7.25;;;6.50;;
21270;SDS011;10795;50.796;3.860;2023-05-07T10:24:47;9.82;;;7.97;;
21270;SDS011;10795;50.796;3.860;2023-05-07T10:35:20;11.77;;;10.55;;
21270;SDS011;10795;50.796;3.860;2023-05-07T10:37:53;14.63;;;12.75;;
21270;SDS011;10795;50.796;3.860;2023-05-07T10:40:20;11.30;;;10.15;;
21270;SDS011;10795;50.796;3.860;2023-05-07T10:42:54;10.27;;;9.02;;
21270;SDS011;10795;50.796;3.860;2023-05-07T10:45:34;9.80;;;8.80;;
21270;SDS011;10795;50.796;3.860;2023-05-07T10:48:05;10.27;;;8.90;;
21270;SDS011;10795;50.796;3.860;2023-05-07T10:50:36;10.38;;;9.38;;
21270;SDS011;10795;50.796;3.860;2023-05-07T10:55:50;12.48;;;9.18;;
21270;SDS011;10795;50.796;3.860;2023-05-07T10:58:26;14.93;;;9.32;;
21270;SDS011;10795;50.796;3.860;2023-05-07T11:01:05;10.63;;;9.60;;
21270;SDS011;10795;50.796;3.860;2023-05-07T11:04:13;11.45;;;10.25;;
21270;SDS011;10795;50.796;3.860;2023-05-07T11:07:08;9.05;;;7.78;;
21270;SDS011;10795;50.796;3.860;2023-05-07T11:15:10;9.05;;;7.63;;
21270;SDS011;10795;50.796;3.860;2023-05-07T11:17:53;12.57;;;10.13;;
21270;SDS011;10795;50.796;3.860;2023-05-07T11:26:10;12.63;;;9.63;;
21270;SDS011;10795;50.796;3.860;2023-05-07T11:28:38;9.90;;;8.93;;
21270;SDS011;10795;50.796;3.860;2023-05-07T11:31:05;12.23;;;9.38;;
21270;SDS011;10795;50.796;3.860;2023-05-07T11:33:32;7.47;;;6.43;;
21270;SDS011;10795;50.796;3.860;2023-05-07T11:36:04;11.45;;;8.27;;
21270;SDS011;10795;50.796;3.860;2023-05-07T11:38:35;9.75;;;8.68;;
21270;SDS011;10795;50.796;3.860;2023-05-07T11:41:02;8.88;;;8.02;;
21270;SDS011;10795;50.796;3.860;2023-05-07T11:43:30;9.55;;;8.00;;
21270;SDS011;10795;50.796;3.860;2023-05-07T11:46:09;10.95;;;9.45;;
21270;SDS011;10795;50.796;3.860;2023-05-07T11:48:37;13.20;;;8.80;;
21270;SDS011;10795;50.796;3.860;2023-05-07T11:51:04;9.38;;;8.25;;
21270;SDS011;10795;50.796;3.860;2023-05-07T11:53:38;5.65;;;5.07;;
21270;SDS011;10795;50.796;3.860;2023-05-07T11:56:07;5.15;;;3.83;;
21270;SDS011;10795;50.796;3.860;2023-05-07T11:58:38;5.20;;;4.50;;
21270;SDS011;10795;50.796;3.860;2023-05-07T12:01:06;5.05;;;4.65;;
21270;SDS011;10795;50.796;3.860;2023-05-07T12:03:34;6.32;;;5.18;;
21270;SDS011;10795;50.796;3.860;2023-05-07T12:06:02;7.90;;;6.88;;
21270;SDS011;10795;50.796;3.860;2023-05-07T12:08:30;10.45;;;8.13;;
21270;SDS011;10795;50.796;3.860;2023-05-07T12:10:56;10.65;;;8.40;;
21270;SDS011;10795;50.796;3.860;2023-05-07T12:13:23;9.10;;;7.82;;
21270;SDS011;10795;50.796;3.860;2023-05-07T12:15:50;13.02;;;9.10;;
21270;SDS011;10795;50.796;3.860;2023-05-07T12:18:28;16.00;;;11.02;;
21270;SDS011;10795;50.796;3.860;2023-05-07T12:20:55;13.55;;;9.68;;
21270;SDS011;10795;50.796;3.860;2023-05-07T12:23:21;17.48;;;11.70;;
21270;SDS011;10795;50.796;3.860;2023-05-07T12:25:47;20.15;;;12.52;;
21270;SDS011;10795;50.796;3.860;2023-05-07T12:28:14;21.58;;;14.00;;
21270;SDS011;10795;50.796;3.860;2023-05-07T12:30:42;21.92;;;13.82;;
21270;SDS011;10795;50.796;3.860;2023-05-07T12:33:08;20.20;;;13.18;;
21270;SDS011;10795;50.796;3.860;2023-05-07T12:35:36;22.92;;;15.70;;
21270;SDS011;10795;50.796;3.860;2023-05-07T12:38:10;24.08;;;15.00;;
21270;SDS011;10795;50.796;3.860;2023-05-07T12:40:38;23.42;;;16.38;;
21270;SDS011;10795;50.796;3.860;2023-05-07T12:43:06;22.45;;;16.40;;
21270;SDS011;10795;50.796;3.860;2023-05-07T12:45:36;22.35;;;15.10;;
21270;SDS011;10795;50.796;3.860;2023-05-07T12:48:05;20.83;;;14.40;;
21270;SDS011;10795;50.796;3.860;2023-05-07T12:50:31;18.45;;;13.27;;
21270;SDS011;10795;50.796;3.860;2023-05-07T12:52:58;16.25;;;12.00;;
21270;SDS011;10795;50.796;3.860;2023-05-07T12:55:24;15.05;;;11.27;;
21270;SDS011;10795;50.796;3.860;2023-05-07T12:57:51;19.55;;;13.20;;
21270;SDS011;10795;50.796;3.860;2023-05-07T13:00:38;19.88;;;13.45;;
21270;SDS011;10795;50.796;3.860;2023-05-07T13:03:04;19.50;;;13.30;;
21270;SDS011;10795;50.796;3.860;2023-05-07T13:05:31;18.60;;;13.90;;
21270;SDS011;10795;50.796;3.860;2023-05-07T13:07:57;19.08;;;14.00;;
21270;SDS011;10795;50.796;3.860;2023-05-07T13:10:23;19.60;;;13.40;;
21270;SDS011;10795;50.796;3.860;2023-05-07T13:12:50;15.02;;;10.50;;
21270;SDS011;10795;50.796;3.860;2023-05-07T13:15:17;14.63;;;11.07;;
21270;SDS011;10795;50.796;3.860;2023-05-07T13:17:43;13.70;;;11.40;;
21270;SDS011;10795;50.796;3.860;2023-05-07T13:20:09;15.27;;;11.70;;
21270;SDS011;10795;50.796;3.860;2023-05-07T13:22:36;15.30;;;11.30;;
21270;SDS011;10795;50.796;3.860;2023-05-07T13:25:02;12.88;;;10.27;;
21270;SDS011;10795;50.796;3.860;2023-05-07T13:27:28;17.35;;;10.18;;
21270;SDS011;10795;50.796;3.860;2023-05-07T13:29:56;12.82;;;10.10;;
21270;SDS011;10795;50.796;3.860;2023-05-07T13:32:22;12.40;;;9.95;;
21270;SDS011;10795;50.796;3.860;2023-05-07T13:34:48;13.93;;;9.98;;
21270;SDS011;10795;50.796;3.860;2023-05-07T13:37:14;11.55;;;9.00;;
21270;SDS011;10795;50.796;3.860;2023-05-07T13:39:39;14.93;;;9.02;;
21270;SDS011;10795;50.796;3.860;2023-05-07T13:42:06;13.82;;;9.65;;
21270;SDS011;10795;50.796;3.860;2023-05-07T13:44:32;17.50;;;11.50;;
21270;SDS011;10795;50.796;3.860;2023-05-07T13:47:00;15.85;;;9.65;;
21270;SDS011;10795;50.796;3.860;2023-05-07T13:49:26;16.15;;;9.38;;
21270;SDS011;10795;50.796;3.860;2023-05-07T13:51:52;14.57;;;9.70;;
21270;SDS011;10795;50.796;3.860;2023-05-07T13:54:18;13.50;;;9.57;;
21270;SDS011;10795;50.796;3.860;2023-05-07T13:56:44;15.80;;;10.43;;
21270;SDS011;10795;50.796;3.860;2023-05-07T13:59:10;13.35;;;8.77;;
21270;SDS011;10795;50.796;3.860;2023-05-07T14:01:37;13.38;;;8.93;;
21270;SDS011;10795;50.796;3.860;2023-05-07T14:04:03;11.48;;;8.32;;
21270;SDS011;10795;50.796;3.860;2023-05-07T14:06:29;14.70;;;8.98;;
21270;SDS011;10795;50.796;3.860;2023-05-07T14:08:55;14.13;;;8.55;;
21270;SDS011;10795;50.796;3.860;2023-05-07T14:11:23;13.20;;;8.38;;
21270;SDS011;10795;50.796;3.860;2023-05-07T14:13:49;14.20;;;9.07;;
21270;SDS011;10795;50.796;3.860;2023-05-07T14:16:14;12.48;;;8.70;;
21270;SDS011;10795;50.796;3.860;2023-05-07T14:18:40;14.02;;;9.93;;
21270;SDS011;10795;50.796;3.860;2023-05-07T14:21:06;14.32;;;9.57;;
21270;SDS011;10795;50.796;3.860;2023-05-07T14:23:34;11.27;;;8.90;;
21270;SDS011;10795;50.796;3.860;2023-05-07T14:26:00;9.55;;;7.40;;
21270;SDS011;10795;50.796;3.860;2023-05-07T14:28:26;14.02;;;9.25;;
21270;SDS011;10795;50.796;3.860;2023-05-07T14:30:52;8.27;;;6.60;;
21270;SDS011;10795;50.796;3.860;2023-05-07T14:33:17;10.60;;;7.47;;
21270;SDS011;10795;50.796;3.860;2023-05-07T14:35:43;14.70;;;9.52;;
21270;SDS011;10795;50.796;3.860;2023-05-07T14:38:13;11.57;;;8.55;;
21270;SDS011;10795;50.796;3.860;2023-05-07T14:40:40;8.23;;;6.50;;
21270;SDS011;10795;50.796;3.860;2023-05-07T14:43:06;8.60;;;6.78;;
21270;SDS011;10795;50.796;3.860;2023-05-07T14:45:32;8.63;;;6.30;;
21270;SDS011;10795;50.796;3.860;2023-05-07T14:47:58;9.32;;;5.72;;
21270;SDS011;10795;50.796;3.860;2023-05-07T14:50:24;16.13;;;8.27;;
21270;SDS011;10795;50.796;3.860;2023-05-07T14:52:50;10.05;;;7.25;;
21270;SDS011;10795;50.796;3.860;2023-05-07T14:55:15;11.23;;;8.45;;
21270;SDS011;10795;50.796;3.860;2023-05-07T14:57:41;9.82;;;6.93;;
21270;SDS011;10795;50.796;3.860;2023-05-07T15:00:07;13.40;;;8.95;;
21270;SDS011;10795;50.796;3.860;2023-05-07T15:02:34;11.30;;;8.88;;
21270;SDS011;10795;50.796;3.860;2023-05-07T15:05:00;13.30;;;9.10;;
21270;SDS011;10795;50.796;3.860;2023-05-07T15:07:26;14.82;;;8.50;;
21270;SDS011;10795;50.796;3.860;2023-05-07T15:09:52;12.27;;;8.38;;